createdAt,value
2023-01-03T00:01:33.771Z,1.00
2023-01-03T00:04:02.097Z,1.00
2023-01-03T00:06:44.173Z,1.00
2023-01-03T00:09:16.078Z,1.00
2023-01-03T00:12:04.094Z,1.00
2023-01-03T00:14:35.573Z,1.00
2023-01-03T00:17:04.448Z,1.00
2023-01-03T00:19:35.771Z,1.00
2023-01-03T00:22:03.348Z,1.00
2023-01-03T00:24:30.664Z,1.00
2023-01-03T00:26:58.009Z,1.00
2023-01-03T00:29:25.514Z,1.00
2023-01-03T00:31:52.892Z,1.00
2023-01-03T00:34:20.258Z,1.00
2023-01-03T00:36:47.675Z,1.00
2023-01-03T00:39:15.109Z,1.00
2023-01-03T00:41:42.830Z,1.00
2023-01-03T00:44:10.660Z,1.00
2023-01-03T00:46:38.007Z,1.00
2023-01-03T00:49:05.546Z,1.00
2023-01-03T00:51:35.227Z,1.00
2023-01-03T00:54:04.292Z,1.00
2023-01-03T00:56:36.090Z,1.00
2023-01-03T00:59:04.324Z,1.00
2023-01-03T01:01:40.622Z,1.00
2023-01-03T01:04:18.026Z,1.00
2023-01-03T01:06:50.524Z,1.00
2023-01-03T01:09:22.019Z,1.00
2023-01-03T01:11:50.371Z,1.00
2023-01-03T01:14:22.167Z,1.00
2023-01-03T01:16:58.740Z,1.00
2023-01-03T01:19:29.683Z,1.00
2023-01-03T01:21:57.702Z,1.00
2023-01-03T01:24:25.344Z,1.00
2023-01-03T01:26:53.027Z,1.00
2023-01-03T01:29:20.637Z,1.00
2023-01-03T01:31:48.133Z,1.00
2023-01-03T01:34:16.100Z,1.00
2023-01-03T01:36:45.416Z,1.00
2023-01-03T01:39:22.534Z,1.00
2023-01-03T01:42:19.705Z,1.00
2023-01-03T01:45:02.440Z,1.00
2023-01-03T01:47:32.718Z,1.00
2023-01-03T01:50:29.446Z,1.00
2023-01-03T01:52:59.660Z,1.00
2023-01-03T01:55:35.205Z,5.90
2023-01-03T01:58:03.152Z,1.00
2023-01-03T02:00:30.928Z,1.00
2023-01-03T02:02:58.403Z,1.00
2023-01-03T02:05:27.199Z,1.00
2023-01-03T02:07:55.467Z,1.00
2023-01-03T02:10:55.925Z,1.00
2023-01-03T02:13:35.692Z,1.00
2023-01-03T02:16:41.515Z,1.00
2023-01-03T02:19:11.805Z,1.00
2023-01-03T02:21:53.745Z,1.00
2023-01-03T02:24:26.609Z,9.00
2023-01-03T02:27:31.564Z,1.00
2023-01-03T02:30:28.394Z,1.00
2023-01-03T02:33:21.763Z,1.00
2023-01-03T02:36:33.379Z,1.00
2023-01-03T02:39:44.029Z,1.00
2023-01-03T02:42:36.556Z,1.00
2023-01-03T02:45:16.509Z,1.00
2023-01-03T02:47:54.834Z,1.00
2023-01-03T02:50:26.534Z,1.00
2023-01-03T02:52:56.894Z,1.00
2023-01-03T02:55:28.595Z,1.00
2023-01-03T02:58:04.861Z,1.00
2023-01-03T03:00:35.234Z,1.00
2023-01-03T03:03:09.787Z,1.00
2023-01-03T03:05:42.778Z,1.00
2023-01-03T03:08:10.080Z,1.00
2023-01-03T03:10:58.201Z,1.00
2023-01-03T03:13:30.499Z,1.00
2023-01-03T03:16:07.604Z,1.00
2023-01-03T03:19:00.053Z,1.00
2023-01-03T03:21:52.879Z,8.10
2023-01-03T03:24:45.365Z,1.00
2023-01-03T03:27:33.826Z,1.00
2023-01-03T03:30:03.717Z,1.00
2023-01-03T03:32:34.101Z,1.00
2023-01-03T03:35:04.852Z,1.00
2023-01-03T03:37:35.029Z,1.00
2023-01-03T03:40:21.356Z,1.00
2023-01-03T03:43:45.294Z,1.00
2023-01-03T03:46:21.939Z,1.00
2023-01-03T03:49:25.643Z,1.00
2023-01-03T03:51:56.465Z,1.00
2023-01-03T03:54:25.478Z,1.00
2023-01-03T03:56:59.708Z,1.00
2023-01-03T03:59:28.389Z,1.00
2023-01-03T04:01:58.698Z,1.00
2023-01-03T04:04:32.857Z,1.00
2023-01-03T04:07:02.410Z,1.00
2023-01-03T04:09:30.057Z,1.00
2023-01-03T04:11:57.332Z,1.00
2023-01-03T04:14:24.765Z,1.00
2023-01-03T04:16:52.124Z,1.00
2023-01-03T04:19:19.419Z,1.00
2023-01-03T04:21:46.752Z,1.00
2023-01-03T04:24:14.076Z,1.00
2023-01-03T04:26:41.352Z,1.00
2023-01-03T04:29:08.584Z,1.00
2023-01-03T04:31:35.939Z,1.00
2023-01-03T04:34:03.239Z,1.00
2023-01-03T04:36:30.546Z,1.00
2023-01-03T04:38:57.782Z,1.00
2023-01-03T04:41:25.024Z,1.00
2023-01-03T04:44:07.429Z,1.00
2023-01-03T04:46:40.063Z,1.00
2023-01-03T04:49:09.704Z,1.00
2023-01-03T04:51:37.789Z,1.00
2023-01-03T04:54:06.395Z,1.00
2023-01-03T04:56:35.854Z,1.00
2023-01-03T04:59:03.411Z,1.00
2023-01-03T05:01:31.002Z,1.50
2023-01-03T05:04:00.305Z,1.00
2023-01-03T05:06:28.743Z,1.00
2023-01-03T05:08:56.371Z,1.00
2023-01-03T05:11:23.805Z,1.80
2023-01-03T05:13:51.089Z,1.90
2023-01-03T05:16:18.562Z,1.10
2023-01-03T05:18:47.158Z,2.20
2023-01-03T05:21:36.336Z,1.00
2023-01-03T05:24:23.247Z,1.00
2023-01-03T05:26:51.307Z,1.20
2023-01-03T05:29:21.884Z,2.10
2023-01-03T05:31:49.608Z,1.90
2023-01-03T05:34:17.048Z,1.10
2023-01-03T05:36:44.286Z,1.80
2023-01-03T05:39:11.881Z,16.00
2023-01-03T05:41:57.643Z,3.40
2023-01-03T05:44:25.005Z,1.30
2023-01-03T05:46:52.558Z,4.80
2023-01-03T05:49:19.819Z,5.60
2023-01-03T05:51:47.074Z,1.90
2023-01-03T05:54:15.777Z,1.20
2023-01-03T05:56:43.194Z,1.80
2023-01-03T05:59:10.693Z,4.20
2023-01-03T06:01:38.115Z,1.10
2023-01-03T06:04:05.532Z,1.00
2023-01-03T06:06:32.869Z,1.00
2023-01-03T06:09:00.405Z,1.00
2023-01-03T06:11:27.643Z,1.40
2023-01-03T06:13:55.007Z,2.60
2023-01-03T06:16:40.989Z,5.30
2023-01-03T06:19:08.658Z,2.90
2023-01-03T06:21:37.291Z,4.50
2023-01-03T06:24:06.304Z,5.70
2023-01-03T06:26:33.862Z,5.20
2023-01-03T06:29:01.370Z,4.90
2023-01-03T06:31:28.730Z,6.50
2023-01-03T06:33:56.098Z,3.60
2023-01-03T06:36:26.104Z,3.00
2023-01-03T06:38:53.982Z,2.50
2023-01-03T06:41:21.793Z,3.30
2023-01-03T06:43:49.261Z,2.50
2023-01-03T06:46:35.184Z,3.90
2023-01-03T06:49:20.854Z,4.80
2023-01-03T06:52:08.331Z,3.90
2023-01-03T06:54:38.944Z,4.90
2023-01-03T06:57:06.226Z,4.20
2023-01-03T06:59:33.527Z,3.20
2023-01-03T07:02:01.075Z,2.20
2023-01-03T07:04:28.410Z,2.00
2023-01-03T07:06:55.726Z,2.90
2023-01-03T07:09:24.300Z,2.50
2023-01-03T07:11:51.689Z,2.50
2023-01-03T07:14:19.190Z,3.70
2023-01-03T07:16:47.849Z,3.40
2023-01-03T07:19:20.066Z,2.70
2023-01-03T07:21:47.592Z,2.10
2023-01-03T07:24:18.605Z,2.20
2023-01-03T07:26:46.036Z,2.30
2023-01-03T07:29:13.339Z,2.70
2023-01-03T07:31:41.605Z,2.80
2023-01-03T07:34:09.868Z,4.60
2023-01-03T07:36:37.429Z,4.40
2023-01-03T07:39:04.700Z,5.00
2023-01-03T07:41:50.621Z,5.00
2023-01-03T07:44:17.877Z,5.80
2023-01-03T07:46:45.277Z,6.20
2023-01-03T07:49:12.778Z,5.00
2023-01-03T07:51:40.219Z,4.80
2023-01-03T07:54:07.949Z,2.70
2023-01-03T07:56:35.665Z,3.40
2023-01-03T07:59:02.990Z,3.40
2023-01-03T08:01:31.111Z,2.50
2023-01-03T08:03:58.690Z,3.60
2023-01-03T08:06:26.128Z,4.70
2023-01-03T08:09:12.192Z,4.30
2023-01-03T08:11:58.100Z,4.30
2023-01-03T08:14:26.993Z,5.40
2023-01-03T08:16:55.720Z,6.30
2023-01-03T08:19:24.045Z,5.40
2023-01-03T08:21:51.318Z,5.70
2023-01-03T08:24:18.699Z,6.10
2023-01-03T08:26:45.990Z,6.20
2023-01-03T08:29:13.214Z,6.00
2023-01-03T08:31:47.226Z,5.20
2023-01-03T08:34:19.815Z,5.60
2023-01-03T08:36:55.111Z,6.90
2023-01-03T08:39:26.684Z,7.10
2023-01-03T08:42:00.946Z,5.40
2023-01-03T08:44:28.243Z,6.50
2023-01-03T08:47:00.307Z,5.00
2023-01-03T08:49:28.105Z,6.30
2023-01-03T08:51:55.362Z,6.90
2023-01-03T08:54:22.609Z,8.20
2023-01-03T08:56:49.862Z,7.90
2023-01-03T08:59:17.068Z,8.20
2023-01-03T09:01:44.544Z,8.50
2023-01-03T09:04:12.013Z,7.90
2023-01-03T09:06:39.256Z,7.60
2023-01-03T09:09:07.820Z,6.90
2023-01-03T09:11:35.272Z,21.50
2023-01-03T09:14:02.518Z,6.10
2023-01-03T09:16:29.922Z,7.10
2023-01-03T09:18:57.904Z,7.20
2023-01-03T09:21:25.342Z,7.20
2023-01-03T09:23:52.647Z,7.20
2023-01-03T09:26:19.896Z,7.70
2023-01-03T09:28:48.043Z,7.90
2023-01-03T09:31:15.388Z,8.80
2023-01-03T09:33:42.931Z,8.50
2023-01-03T09:36:10.176Z,8.50
2023-01-03T09:38:37.532Z,9.10
2023-01-03T09:41:21.555Z,9.00
2023-01-03T09:43:59.477Z,8.90
2023-01-03T09:46:29.489Z,9.60
2023-01-03T09:48:57.623Z,8.90
2023-01-03T09:51:54.341Z,8.90
2023-01-03T09:54:52.304Z,9.30
2023-01-03T09:57:47.871Z,9.30
2023-01-03T10:00:55.521Z,8.90
2023-01-03T10:03:50.414Z,8.90
2023-01-03T10:06:34.488Z,8.50
2023-01-03T10:09:06.237Z,9.00
2023-01-03T10:12:03.727Z,9.00
2023-01-03T10:14:52.744Z,9.40
2023-01-03T10:17:58.476Z,9.50
2023-01-03T10:20:42.520Z,9.10
2023-01-03T10:23:11.356Z,9.20
2023-01-03T10:25:41.624Z,8.90
2023-01-03T10:28:21.525Z,8.30
2023-01-03T10:31:02.238Z,7.30
2023-01-03T10:33:38.749Z,7.20
2023-01-03T10:36:08.614Z,5.90
2023-01-03T10:38:44.850Z,6.50
2023-01-03T10:41:23.230Z,6.30
2023-01-03T10:43:59.141Z,6.70
2023-01-03T10:46:28.267Z,5.40
2023-01-03T10:49:26.450Z,6.10
2023-01-03T10:51:47.906Z,5.80
2023-01-03T10:54:18.233Z,4.70
2023-01-03T10:56:47.275Z,4.10
2023-01-03T10:59:26.006Z,5.10
2023-01-03T11:02:03.245Z,4.60
2023-01-03T11:04:31.994Z,5.70
2023-01-03T11:07:00.798Z,4.70
2023-01-03T11:09:55.184Z,5.00
2023-01-03T11:12:37.202Z,5.10
2023-01-03T11:15:19.190Z,4.40
2023-01-03T11:17:54.824Z,4.40
2023-01-03T11:20:33.215Z,4.30
2023-01-03T11:23:08.780Z,5.50
2023-01-03T11:25:54.607Z,5.90
2023-01-03T11:28:46.627Z,4.20
2023-01-03T11:31:51.820Z,3.90
2023-01-03T11:34:22.068Z,5.10
2023-01-03T11:36:58.726Z,6.00
2023-01-03T11:39:37.327Z,5.40
2023-01-03T11:42:23.331Z,5.80
2023-01-03T11:45:04.683Z,5.50
2023-01-03T11:47:44.112Z,5.50
2023-01-03T11:50:29.561Z,6.50
2023-01-03T11:53:06.720Z,6.20
2023-01-03T11:56:18.904Z,6.20
2023-01-03T11:58:58.676Z,5.90
2023-01-03T12:01:30.680Z,5.80
2023-01-03T12:04:05.897Z,6.10
2023-01-03T12:06:36.086Z,5.80
2023-01-03T12:09:32.548Z,5.40
2023-01-03T12:11:59.912Z,4.40
2023-01-03T12:14:38.020Z,5.00
2023-01-03T12:17:22.198Z,5.30
2023-01-03T12:20:15.551Z,4.90
2023-01-03T12:22:57.949Z,4.80
2023-01-03T12:25:40.182Z,5.80
2023-01-03T12:28:10.498Z,5.50
2023-01-03T12:30:53.221Z,5.60
2023-01-03T12:33:42.690Z,6.70
2023-01-03T12:36:33.854Z,7.10
2023-01-03T12:39:33.666Z,6.60
2023-01-03T12:42:14.356Z,6.50
2023-01-03T12:44:45.430Z,20.90
2023-01-03T12:48:00.836Z,6.20
2023-01-03T12:50:44.507Z,6.30
2023-01-03T12:53:20.762Z,6.50
2023-01-03T12:55:57.040Z,6.10
2023-01-03T12:58:39.290Z,6.50
2023-01-03T13:01:35.948Z,6.10
2023-01-03T13:04:23.953Z,6.80
2023-01-03T13:07:12.116Z,7.50
2023-01-03T13:09:44.805Z,7.20
2023-01-03T13:12:26.004Z,6.70
2023-01-03T13:15:03.787Z,8.00
2023-01-03T13:17:41.735Z,7.70
2023-01-03T13:20:15.119Z,8.40
2023-01-03T13:22:55.356Z,9.90
2023-01-03T13:25:41.637Z,12.30
2023-01-03T13:28:21.091Z,13.20
2023-01-03T13:30:48.620Z,15.10
2023-01-03T13:33:19.536Z,16.70
2023-01-03T13:35:46.885Z,16.80
2023-01-03T13:38:32.327Z,18.10
2023-01-03T13:41:26.540Z,16.90
2023-01-03T13:43:55.380Z,19.70
2023-01-03T13:46:27.819Z,20.70
2023-01-03T13:49:00.394Z,21.90
2023-01-03T13:51:39.710Z,23.90
2023-01-03T13:54:12.772Z,17.80
2023-01-03T13:56:43.180Z,14.60
2023-01-03T13:59:19.361Z,19.10
2023-01-03T14:02:10.748Z,33.60
2023-01-03T14:04:56.522Z,17.10
2023-01-03T14:07:57.963Z,14.70
2023-01-03T14:11:02.385Z,15.40
2023-01-03T14:13:44.197Z,19.00
2023-01-03T14:16:23.706Z,19.20
2023-01-03T14:19:18.195Z,16.40
2023-01-03T14:21:52.167Z,14.50
2023-01-03T14:24:24.094Z,15.30
2023-01-03T14:26:51.978Z,14.40
2023-01-03T14:29:22.691Z,14.30
2023-01-03T14:31:55.793Z,15.10
2023-01-03T14:34:40.343Z,16.60
2023-01-03T14:37:19.833Z,21.90
2023-01-03T14:39:53.919Z,21.30
2023-01-03T14:42:21.239Z,18.50
2023-01-03T14:45:03.919Z,16.50
2023-01-03T14:47:41.315Z,16.90
2023-01-03T14:50:15.887Z,18.00
2023-01-03T14:52:46.015Z,18.30
2023-01-03T14:55:19.097Z,18.10
2023-01-03T14:57:49.242Z,17.60
2023-01-03T15:00:18.378Z,18.50
2023-01-03T15:02:47.278Z,19.60
2023-01-03T15:05:25.676Z,18.90
2023-01-03T15:07:53.822Z,18.20
2023-01-03T15:10:34.173Z,19.60
2023-01-03T15:13:04.959Z,19.80
2023-01-03T15:15:40.168Z,23.80
2023-01-03T15:18:09.719Z,28.10
2023-01-03T15:20:40.456Z,24.90
2023-01-03T15:23:21.283Z,25.30
2023-01-03T15:25:48.974Z,25.60
2023-01-03T15:28:29.239Z,26.90
2023-01-03T15:31:11.987Z,27.00
2023-01-03T15:33:41.380Z,28.10
2023-01-03T15:36:18.792Z,31.00
2023-01-03T15:38:47.638Z,29.20
2023-01-03T15:41:43.684Z,32.20
2023-01-03T15:44:13.455Z,29.70
2023-01-03T15:46:48.902Z,30.70
2023-01-03T15:49:21.555Z,31.20
2023-01-03T15:51:49.145Z,33.80
2023-01-03T15:54:19.435Z,31.90
2023-01-03T15:57:00.112Z,32.80
2023-01-03T15:59:30.122Z,48.60
2023-01-03T16:01:57.850Z,32.80
2023-01-03T16:04:26.498Z,31.60
2023-01-03T16:06:53.855Z,30.70
2023-01-03T16:09:21.587Z,31.30
2023-01-03T16:11:57.989Z,31.10
2023-01-03T16:14:35.332Z,32.90
2023-01-03T16:17:03.859Z,36.20
2023-01-03T16:19:31.771Z,31.80
2023-01-03T16:24:48.627Z,34.10
2023-01-03T16:27:19.157Z,35.30
2023-01-03T16:29:46.831Z,33.90
2023-01-03T16:32:23.952Z,36.40
2023-01-03T16:34:51.496Z,36.00
2023-01-03T16:37:18.788Z,38.90
2023-01-03T16:39:48.752Z,35.90
2023-01-03T16:42:16.246Z,36.30
2023-01-03T16:44:46.673Z,36.60
2023-01-03T16:47:19.662Z,37.50
2023-01-03T16:49:51.751Z,38.70
2023-01-03T16:52:25.058Z,37.20
2023-01-03T16:54:53.314Z,38.90
2023-01-03T16:57:22.570Z,37.80
2023-01-03T16:59:49.983Z,45.50
2023-01-03T17:02:17.389Z,41.30
2023-01-03T17:04:44.803Z,37.40
2023-01-03T17:07:24.043Z,37.60
2023-01-03T17:09:52.200Z,36.80
2023-01-03T17:12:22.739Z,38.10
2023-01-03T17:14:51.200Z,36.80
2023-01-03T17:17:21.176Z,37.10
2023-01-03T17:20:06.279Z,38.40
2023-01-03T17:22:33.964Z,39.20
2023-01-03T17:25:01.239Z,41.10
2023-01-03T17:27:32.612Z,39.20
2023-01-03T17:30:04.544Z,38.20
2023-01-03T17:32:31.894Z,39.70
2023-01-03T17:34:59.159Z,45.70
2023-01-03T17:37:26.657Z,46.70
2023-01-03T17:39:59.808Z,47.10
2023-01-03T17:42:29.250Z,45.70
2023-01-03T17:45:14.863Z,44.40
2023-01-03T17:48:02.328Z,42.80
2023-01-03T17:50:31.434Z,44.20
2023-01-03T17:53:01.175Z,41.60
2023-01-03T17:55:30.213Z,41.60
2023-01-03T17:58:01.851Z,60.00
2023-01-03T18:00:30.690Z,41.70
2023-01-03T18:03:00.389Z,37.90
2023-01-03T18:05:29.039Z,37.70
2023-01-03T18:08:01.852Z,40.10
2023-01-03T18:10:46.142Z,41.60
2023-01-03T18:13:20.593Z,43.20
2023-01-03T18:15:47.960Z,45.00
2023-01-03T18:18:18.070Z,46.90
2023-01-03T18:20:45.784Z,47.50
2023-01-03T18:23:37.848Z,45.80
2023-01-03T18:26:10.079Z,44.00
2023-01-03T18:28:37.440Z,47.10
2023-01-03T18:31:06.173Z,40.50
2023-01-03T18:33:33.563Z,42.00
2023-01-03T18:36:01.418Z,40.10
2023-01-03T18:38:31.897Z,43.60
2023-01-03T18:41:04.922Z,46.00
2023-01-03T18:43:33.357Z,43.90
2023-01-03T18:46:01.214Z,40.50
2023-01-03T18:48:28.610Z,39.50
2023-01-03T18:50:59.252Z,41.30
2023-01-03T18:53:29.390Z,41.30
2023-01-03T18:55:56.808Z,45.40
2023-01-03T18:58:39.788Z,43.50
2023-01-03T19:01:07.382Z,42.50
2023-01-03T19:03:35.643Z,42.50
2023-01-03T19:06:13.007Z,42.90
2023-01-03T19:08:40.350Z,44.00
2023-01-03T19:11:13.568Z,42.90
2023-01-03T19:13:52.120Z,41.60
2023-01-03T19:16:22.400Z,39.70
2023-01-03T19:18:50.391Z,41.20
2023-01-03T19:21:19.742Z,43.00
2023-01-03T19:24:07.271Z,41.60
2023-01-03T19:26:44.029Z,43.60
2023-01-03T19:29:20.299Z,43.30
2023-01-03T19:31:49.007Z,45.40
2023-01-03T19:34:18.423Z,44.40
2023-01-03T19:36:46.128Z,47.30
2023-01-03T19:39:14.169Z,48.30
2023-01-03T19:42:08.872Z,50.30
2023-01-03T19:44:36.600Z,52.80
2023-01-03T19:47:04.693Z,54.50
2023-01-03T19:49:32.041Z,55.30
2023-01-03T19:51:59.297Z,57.10
2023-01-03T19:54:26.716Z,56.20
2023-01-03T19:56:58.814Z,57.50
2023-01-03T19:59:36.227Z,57.30
2023-01-03T20:02:26.026Z,58.10
2023-01-03T20:04:53.676Z,60.70
2023-01-03T20:07:21.061Z,61.70
2023-01-03T20:09:48.314Z,62.60
2023-01-03T20:12:18.767Z,60.60
2023-01-03T20:14:49.817Z,58.80
2023-01-03T20:17:22.527Z,59.90
2023-01-03T20:19:50.421Z,62.80
2023-01-03T20:23:02.434Z,63.10
2023-01-03T20:25:37.159Z,62.70
2023-01-03T20:28:05.820Z,62.00
2023-01-03T20:30:34.359Z,62.00
2023-01-03T20:33:01.751Z,63.00
2023-01-03T20:38:24.683Z,65.00
2023-01-03T20:40:56.110Z,67.00
2023-01-03T20:43:24.061Z,65.60
2023-01-03T20:45:55.065Z,65.40
2023-01-03T20:48:26.047Z,67.50
2023-01-03T20:50:54.450Z,71.60
2023-01-03T20:53:24.673Z,74.40
2023-01-03T20:55:53.111Z,76.40
2023-01-03T20:58:25.329Z,78.20
2023-01-03T21:00:56.918Z,83.20
2023-01-03T21:03:31.371Z,85.50
2023-01-03T21:05:59.154Z,87.10
2023-01-03T21:08:45.005Z,81.90
2023-01-03T21:11:12.344Z,81.20
2023-01-03T21:13:39.866Z,83.00
2023-01-03T21:16:30.713Z,83.40
2023-01-03T21:19:08.569Z,85.60
2023-01-03T21:21:36.116Z,86.90
2023-01-03T21:24:05.475Z,89.40
2023-01-03T21:26:32.825Z,90.60
2023-01-03T21:29:00.218Z,93.50
2023-01-03T21:31:27.757Z,94.20
2023-01-03T21:33:55.168Z,94.40
2023-01-03T21:36:31.347Z,94.20
2023-01-03T21:38:59.747Z,94.70
2023-01-03T21:41:29.449Z,91.80
2023-01-03T21:43:58.248Z,91.30
2023-01-03T21:46:26.540Z,90.90
2023-01-03T21:48:54.648Z,89.50
2023-01-03T21:51:33.515Z,86.10
2023-01-03T21:54:08.878Z,82.80
2023-01-03T21:56:45.058Z,87.80
2023-01-03T21:59:17.277Z,90.00
2023-01-03T22:02:06.346Z,87.50
2023-01-03T22:04:34.729Z,82.70
2023-01-03T22:07:02.464Z,75.40
2023-01-03T22:09:50.102Z,74.80
2023-01-03T22:12:19.160Z,79.00
2023-01-03T22:14:46.680Z,80.30
2023-01-03T22:17:14.688Z,86.90
2023-01-03T22:19:42.151Z,90.80
2023-01-03T22:22:09.514Z,92.90
2023-01-03T22:24:36.792Z,93.50
2023-01-03T22:27:04.233Z,96.60
2023-01-03T22:29:31.496Z,99.90
2023-01-03T22:31:58.701Z,99.90
2023-01-03T22:34:26.140Z,99.50
2023-01-03T22:36:53.426Z,97.00
2023-01-03T22:39:20.706Z,96.70
2023-01-03T22:41:47.934Z,95.00
2023-01-03T22:44:15.188Z,93.40
2023-01-03T22:46:42.423Z,91.50
2023-01-03T22:49:09.673Z,92.00
2023-01-03T22:51:36.927Z,87.90
2023-01-03T22:54:04.999Z,84.40
2023-01-03T22:56:32.529Z,79.50
2023-01-03T22:59:01.197Z,79.20
2023-01-03T23:01:28.714Z,76.50
2023-01-03T23:04:03.376Z,69.70
2023-01-03T23:06:32.272Z,68.90
2023-01-03T23:09:00.368Z,72.70
2023-01-03T23:11:48.749Z,76.00
2023-01-03T23:14:18.482Z,76.40
2023-01-03T23:16:48.364Z,83.10
2023-01-03T23:19:17.995Z,78.60
2023-01-03T23:21:48.508Z,83.50
2023-01-03T23:24:22.464Z,85.70
2023-01-03T23:26:50.394Z,80.60
2023-01-03T23:29:18.303Z,75.20
2023-01-03T23:31:45.570Z,71.60
2023-01-03T23:34:13.203Z,72.10
2023-01-03T23:36:43.558Z,72.00
2023-01-03T23:39:16.320Z,70.70
2023-01-03T23:41:44.242Z,66.50
2023-01-03T23:44:12.161Z,69.00
2023-01-03T23:46:39.623Z,71.20
2023-01-03T23:49:06.884Z,73.70
2023-01-03T23:51:34.174Z,76.40
2023-01-03T23:54:01.500Z,78.00
2023-01-03T23:56:28.817Z,81.60
2023-01-03T23:58:56.028Z,79.30
